sensor_id;sensor_type;location;lat;lon;timestamp;pressure;altitude;pressure_sealevel;temperature;humidity
67980;BME280;54760;47.490;19.030;2022-09-16T00:00:47;99169.38;;;18.60;82.51
67980;BME280;54760;47.490;19.030;2022-09-16T00:03:13;99166.91;;;18.68;81.53
67980;BME280;54760;47.490;19.030;2022-09-16T00:05:45;99167.09;;;18.59;81.24
67980;BME280;54760;47.490;19.030;2022-09-16T00:08:11;99166.38;;;18.64;81.23
67980;BME280;54760;47.490;19.030;2022-09-16T00:10:37;99165.19;;;18.39;82.79
67980;BME280;54760;47.490;19.030;2022-09-16T00:13:03;99175.41;;;18.22;83.31
67980;BME280;54760;47.490;19.030;2022-09-16T00:15:28;99175.78;;;18.41;81.97
67980;BME280;54760;47.490;19.030;2022-09-16T00:17:53;99183.22;;;18.55;80.56
67980;BME280;54760;47.490;19.030;2022-09-16T00:20:19;99187.50;;;18.56;80.40
67980;BME280;54760;47.490;19.030;2022-09-16T00:22:44;99194.66;;;18.74;77.90
67980;BME280;54760;47.490;19.030;2022-09-16T00:25:10;99195.34;;;18.63;77.72
67980;BME280;54760;47.490;19.030;2022-09-16T00:27:35;99197.47;;;18.48;78.96
67980;BME280;54760;47.490;19.030;2022-09-16T00:30:00;99192.91;;;18.39;79.80
67980;BME280;54760;47.490;19.030;2022-09-16T00:32:26;99187.00;;;18.57;79.02
67980;BME280;54760;47.490;19.030;2022-09-16T00:34:51;99191.66;;;18.40;79.87
67980;BME280;54760;47.490;19.030;2022-09-16T00:37:17;99198.06;;;18.21;81.15
67980;BME280;54760;47.490;19.030;2022-09-16T00:39:42;99194.84;;;17.96;82.59
67980;BME280;54760;47.490;19.030;2022-09-16T00:42:10;99212.44;;;18.25;81.19
67980;BME280;54760;47.490;19.030;2022-09-16T00:45:05;99220.12;;;18.41;79.94
67980;BME280;54760;47.490;19.030;2022-09-16T00:50:17;99217.13;;;18.13;81.08
67980;BME280;54760;47.490;19.030;2022-09-16T00:52:44;99215.75;;;17.97;82.05
67980;BME280;54760;47.490;19.030;2022-09-16T00:55:21;99214.22;;;17.96;82.06
67980;BME280;54760;47.490;19.030;2022-09-16T00:57:49;99218.59;;;18.08;81.21
67980;BME280;54760;47.490;19.030;2022-09-16T01:00:15;99218.50;;;17.97;81.29
67980;BME280;54760;47.490;19.030;2022-09-16T01:02:41;99231.00;;;17.87;81.31
67980;BME280;54760;47.490;19.030;2022-09-16T01:05:13;99226.16;;;17.82;81.91
67980;BME280;54760;47.490;19.030;2022-09-16T01:07:44;99220.75;;;17.93;81.38
67980;BME280;54760;47.490;19.030;2022-09-16T01:10:13;99227.34;;;17.75;81.70
67980;BME280;54760;47.490;19.030;2022-09-16T01:12:40;99226.97;;;17.88;80.72
67980;BME280;54760;47.490;19.030;2022-09-16T01:15:07;99220.03;;;17.72;81.92
67980;BME280;54760;47.490;19.030;2022-09-16T01:23:06;99230.87;;;17.56;82.61
67980;BME280;54760;47.490;19.030;2022-09-16T01:50:31;99226.22;;;17.21;83.25
67980;BME280;54760;47.490;19.030;2022-09-16T01:55:35;99235.81;;;17.26;82.97
67980;BME280;54760;47.490;19.030;2022-09-16T01:58:23;99241.09;;;17.24;82.52
67980;BME280;54760;47.490;19.030;2022-09-16T02:00:58;99223.44;;;17.21;82.10
67980;BME280;54760;47.490;19.030;2022-09-16T02:03:29;99233.13;;;17.11;82.44
67980;BME280;54760;47.490;19.030;2022-09-16T02:06:01;99233.81;;;17.06;83.05
67980;BME280;54760;47.490;19.030;2022-09-16T02:08:50;99232.56;;;17.27;82.20
67980;BME280;54760;47.490;19.030;2022-09-16T02:11:18;99233.88;;;17.32;81.82
67980;BME280;54760;47.490;19.030;2022-09-16T02:13:52;99232.72;;;17.39;80.88
67980;BME280;54760;47.490;19.030;2022-09-16T02:17:10;99238.28;;;17.64;80.03
67980;BME280;54760;47.490;19.030;2022-09-16T02:19:14;99236.03;;;17.63;80.20
67980;BME280;54760;47.490;19.030;2022-09-16T02:21:41;99237.66;;;17.75;80.14
67980;BME280;54760;47.490;19.030;2022-09-16T02:24:10;99238.25;;;17.39;81.29
67980;BME280;54760;47.490;19.030;2022-09-16T02:26:41;99252.16;;;17.44;81.00
67980;BME280;54760;47.490;19.030;2022-09-16T02:29:12;99242.78;;;17.82;79.56
67980;BME280;54760;47.490;19.030;2022-09-16T02:31:42;99251.78;;;17.77;79.50
67980;BME280;54760;47.490;19.030;2022-09-16T02:34:16;99262.84;;;17.57;79.61
67980;BME280;54760;47.490;19.030;2022-09-16T02:36:46;99260.56;;;17.35;77.31
67980;BME280;54760;47.490;19.030;2022-09-16T02:39:19;99264.84;;;17.36;77.70
67980;BME280;54760;47.490;19.030;2022-09-16T02:41:48;99265.47;;;17.46;76.64
67980;BME280;54760;47.490;19.030;2022-09-16T02:44:13;99259.75;;;17.49;77.63
67980;BME280;54760;47.490;19.030;2022-09-16T02:46:47;99274.16;;;17.73;77.33
67980;BME280;54760;47.490;19.030;2022-09-16T02:49:29;99275.91;;;17.56;79.35
67980;BME280;54760;47.490;19.030;2022-09-16T02:54:50;99290.94;;;17.50;81.29
67980;BME280;54760;47.490;19.030;2022-09-16T02:57:18;99292.03;;;17.17;82.57
67980;BME280;54760;47.490;19.030;2022-09-16T02:59:44;99283.53;;;17.21;82.62
67980;BME280;54760;47.490;19.030;2022-09-16T03:02:10;99290.25;;;17.14;83.44
67980;BME280;54760;47.490;19.030;2022-09-16T03:04:35;99285.53;;;17.41;81.64
67980;BME280;54760;47.490;19.030;2022-09-16T03:07:05;99293.25;;;17.16;81.88
67980;BME280;54760;47.490;19.030;2022-09-16T03:09:33;99296.59;;;17.00;82.23
67980;BME280;54760;47.490;19.030;2022-09-16T03:18:27;99290.38;;;17.05;75.76
67980;BME280;54760;47.490;19.030;2022-09-16T03:31:46;99286.16;;;17.10;75.45
67980;BME280;54760;47.490;19.030;2022-09-16T03:36:49;99291.47;;;17.13;76.22
67980;BME280;54760;47.490;19.030;2022-09-16T03:39:17;99296.22;;;16.93;77.08
67980;BME280;54760;47.490;19.030;2022-09-16T03:41:42;99298.94;;;17.07;75.93
67980;BME280;54760;47.490;19.030;2022-09-16T03:44:08;99293.69;;;17.09;76.18
67980;BME280;54760;47.490;19.030;2022-09-16T03:46:34;99292.56;;;17.01;76.39
67980;BME280;54760;47.490;19.030;2022-09-16T03:48:59;99298.53;;;17.14;75.85
67980;BME280;54760;47.490;19.030;2022-09-16T03:51:25;99299.59;;;17.02;76.51
67980;BME280;54760;47.490;19.030;2022-09-16T03:53:51;99301.84;;;17.18;75.42
67980;BME280;54760;47.490;19.030;2022-09-16T03:56:16;99302.97;;;17.47;72.86
67980;BME280;54760;47.490;19.030;2022-09-16T03:58:42;99301.03;;;17.32;73.11
67980;BME280;54760;47.490;19.030;2022-09-16T04:01:08;99299.34;;;17.20;73.84
67980;BME280;54760;47.490;19.030;2022-09-16T04:03:33;99292.87;;;17.23;74.24
67980;BME280;54760;47.490;19.030;2022-09-16T04:06:02;99306.16;;;17.40;74.05
67980;BME280;54760;47.490;19.030;2022-09-16T04:08:27;99309.22;;;17.07;74.94
67980;BME280;54760;47.490;19.030;2022-09-16T04:10:57;99312.53;;;17.11;75.16
67980;BME280;54760;47.490;19.030;2022-09-16T04:13:23;99312.16;;;17.18;75.22
67980;BME280;54760;47.490;19.030;2022-09-16T04:15:49;99311.34;;;16.97;75.60
67980;BME280;54760;47.490;19.030;2022-09-16T04:18:15;99311.22;;;17.06;75.45
67980;BME280;54760;47.490;19.030;2022-09-16T04:20:41;99310.75;;;17.08;75.60
67980;BME280;54760;47.490;19.030;2022-09-16T04:23:07;99319.81;;;17.08;75.87
67980;BME280;54760;47.490;19.030;2022-09-16T04:25:32;99320.41;;;16.98;76.54
67980;BME280;54760;47.490;19.030;2022-09-16T04:27:58;99327.97;;;16.82;76.89
67980;BME280;54760;47.490;19.030;2022-09-16T04:30:24;99325.97;;;16.83;77.12
67980;BME280;54760;47.490;19.030;2022-09-16T04:32:54;99327.41;;;16.64;78.43
67980;BME280;54760;47.490;19.030;2022-09-16T04:35:20;99325.88;;;16.77;77.85
67980;BME280;54760;47.490;19.030;2022-09-16T04:37:46;99324.22;;;17.00;77.21
67980;BME280;54760;47.490;19.030;2022-09-16T04:40:14;99317.13;;;16.79;77.96
67980;BME280;54760;47.490;19.030;2022-09-16T04:42:41;99313.81;;;17.10;76.80
67980;BME280;54760;47.490;19.030;2022-09-16T04:45:12;99309.47;;;17.23;75.96
67980;BME280;54760;47.490;19.030;2022-09-16T04:47:37;99322.25;;;17.21;75.56
67980;BME280;54760;47.490;19.030;2022-09-16T04:50:02;99317.50;;;17.42;74.62
67980;BME280;54760;47.490;19.030;2022-09-16T04:52:29;99328.16;;;17.28;75.36
67980;BME280;54760;47.490;19.030;2022-09-16T04:54:55;99322.50;;;17.03;76.57
67980;BME280;54760;47.490;19.030;2022-09-16T04:57:20;99325.56;;;17.05;76.81
67980;BME280;54760;47.490;19.030;2022-09-16T04:59:46;99326.69;;;17.33;75.50
67980;BME280;54760;47.490;19.030;2022-09-16T05:02:11;99322.00;;;17.59;74.21
67980;BME280;54760;47.490;19.030;2022-09-16T05:04:36;99325.13;;;17.67;72.85
67980;BME280;54760;47.490;19.030;2022-09-16T05:07:02;99323.22;;;17.18;75.40
67980;BME280;54760;47.490;19.030;2022-09-16T05:09:27;99330.16;;;17.48;75.03
67980;BME280;54760;47.490;19.030;2022-09-16T05:11:52;99322.09;;;17.65;74.22
67980;BME280;54760;47.490;19.030;2022-09-16T05:14:18;99320.97;;;17.77;73.48
67980;BME280;54760;47.490;19.030;2022-09-16T05:16:44;99325.81;;;17.82;73.52
67980;BME280;54760;47.490;19.030;2022-09-16T05:19:11;99326.91;;;17.50;74.03
67980;BME280;54760;47.490;19.030;2022-09-16T05:21:38;99329.44;;;17.13;74.88
67980;BME280;54760;47.490;19.030;2022-09-16T05:24:08;99336.69;;;17.10;74.93
67980;BME280;54760;47.490;19.030;2022-09-16T05:26:37;99330.41;;;17.30;74.05
67980;BME280;54760;47.490;19.030;2022-09-16T05:29:09;99329.13;;;17.86;72.07
67980;BME280;54760;47.490;19.030;2022-09-16T05:31:37;99337.31;;;17.75;72.81
67980;BME280;54760;47.490;19.030;2022-09-16T05:36:36;99345.84;;;17.37;74.21
67980;BME280;54760;47.490;19.030;2022-09-16T05:39:03;99341.84;;;17.38;74.37
67980;BME280;54760;47.490;19.030;2022-09-16T05:41:29;99347.16;;;17.41;74.31
67980;BME280;54760;47.490;19.030;2022-09-16T05:43:57;99345.09;;;17.36;74.72
67980;BME280;54760;47.490;19.030;2022-09-16T05:46:23;99342.59;;;17.38;74.67
67980;BME280;54760;47.490;19.030;2022-09-16T05:48:49;99343.22;;;17.48;74.57
67980;BME280;54760;47.490;19.030;2022-09-16T05:51:17;99342.75;;;17.49;74.70
67980;BME280;54760;47.490;19.030;2022-09-16T05:53:43;99351.44;;;17.77;74.24
67980;BME280;54760;47.490;19.030;2022-09-16T05:56:11;99346.44;;;17.81;73.35
67980;BME280;54760;47.490;19.030;2022-09-16T05:58:37;99337.44;;;17.66;73.15
67980;BME280;54760;47.490;19.030;2022-09-16T06:03:31;99335.47;;;18.12;71.94
67980;BME280;54760;47.490;19.030;2022-09-16T06:08:31;99338.50;;;18.14;71.34
67980;BME280;54760;47.490;19.030;2022-09-16T06:11:04;99336.03;;;17.96;71.84
67980;BME280;54760;47.490;19.030;2022-09-16T06:13:30;99345.91;;;17.77;72.12
67980;BME280;54760;47.490;19.030;2022-09-16T06:15:56;99343.31;;;17.94;71.45
67980;BME280;54760;47.490;19.030;2022-09-16T06:18:24;99344.56;;;18.18;70.77
67980;BME280;54760;47.490;19.030;2022-09-16T06:20:50;99350.88;;;17.93;70.82
67980;BME280;54760;47.490;19.030;2022-09-16T06:23:15;99352.25;;;17.83;70.82
67980;BME280;54760;47.490;19.030;2022-09-16T06:25:41;99350.34;;;17.69;71.08
67980;BME280;54760;47.490;19.030;2022-09-16T06:28:07;99350.97;;;17.44;71.89
67980;BME280;54760;47.490;19.030;2022-09-16T06:30:34;99358.28;;;17.61;71.16
67980;BME280;54760;47.490;19.030;2022-09-16T06:32:59;99345.75;;;17.66;71.17
67980;BME280;54760;47.490;19.030;2022-09-16T06:35:25;99349.28;;;17.66;71.33
67980;BME280;54760;47.490;19.030;2022-09-16T06:37:50;99339.38;;;17.80;70.44
67980;BME280;54760;47.490;19.030;2022-09-16T06:40:16;99345.59;;;17.75;71.76
67980;BME280;54760;47.490;19.030;2022-09-16T06:42:41;99332.19;;;18.14;68.87
67980;BME280;54760;47.490;19.030;2022-09-16T06:45:07;99341.72;;;18.07;69.22
67980;BME280;54760;47.490;19.030;2022-09-16T06:47:33;99355.97;;;17.80;70.35
67980;BME280;54760;47.490;19.030;2022-09-16T06:49:59;99347.34;;;18.18;69.00
67980;BME280;54760;47.490;19.030;2022-09-16T06:52:25;99335.59;;;18.03;68.96
67980;BME280;54760;47.490;19.030;2022-09-16T06:54:50;99342.97;;;18.32;67.73
67980;BME280;54760;47.490;19.030;2022-09-16T06:57:16;99347.41;;;17.98;68.82
67980;BME280;54760;47.490;19.030;2022-09-16T06:59:44;99354.88;;;17.92;68.67
67980;BME280;54760;47.490;19.030;2022-09-16T07:02:09;99336.72;;;18.11;68.56
67980;BME280;54760;47.490;19.030;2022-09-16T07:04:36;99336.38;;;18.30;67.60
67980;BME280;54760;47.490;19.030;2022-09-16T07:07:01;99337.37;;;18.27;67.89
67980;BME280;54760;47.490;19.030;2022-09-16T07:09:27;99342.50;;;18.39;67.17
67980;BME280;54760;47.490;19.030;2022-09-16T07:11:53;99344.63;;;18.50;66.42
67980;BME280;54760;47.490;19.030;2022-09-16T07:14:19;99349.50;;;18.55;66.61
67980;BME280;54760;47.490;19.030;2022-09-16T07:16:44;99351.38;;;18.43;66.58
67980;BME280;54760;47.490;19.030;2022-09-16T07:19:10;99345.41;;;18.50;66.34
67980;BME280;54760;47.490;19.030;2022-09-16T07:21:35;99349.47;;;18.86;66.00
67980;BME280;54760;47.490;19.030;2022-09-16T07:24:01;99354.16;;;19.06;65.11
67980;BME280;54760;47.490;19.030;2022-09-16T07:26:32;99355.22;;;19.09;64.50
67980;BME280;54760;47.490;19.030;2022-09-16T07:29:01;99358.31;;;19.22;64.43
67980;BME280;54760;47.490;19.030;2022-09-16T07:31:28;99359.16;;;19.33;64.12
67980;BME280;54760;47.490;19.030;2022-09-16T07:33:56;99354.88;;;19.38;63.49
67980;BME280;54760;47.490;19.030;2022-09-16T07:36:24;99360.66;;;19.77;63.01
67980;BME280;54760;47.490;19.030;2022-09-16T07:38:51;99359.47;;;20.00;62.95
67980;BME280;54760;47.490;19.030;2022-09-16T07:41:19;99374.91;;;20.07;62.45
67980;BME280;54760;47.490;19.030;2022-09-16T07:43:45;99361.19;;;19.86;60.46
67980;BME280;54760;47.490;19.030;2022-09-16T07:46:12;99370.16;;;19.59;61.37
67980;BME280;54760;47.490;19.030;2022-09-16T07:48:38;99379.75;;;19.21;62.44
67980;BME280;54760;47.490;19.030;2022-09-16T07:51:09;99376.50;;;19.65;61.82
67980;BME280;54760;47.490;19.030;2022-09-16T07:53:35;99371.28;;;19.41;60.81
67980;BME280;54760;47.490;19.030;2022-09-16T07:56:09;99371.34;;;19.47;61.26
67980;BME280;54760;47.490;19.030;2022-09-16T07:58:35;99379.25;;;19.65;60.54
67980;BME280;54760;47.490;19.030;2022-09-16T08:01:01;99378.41;;;20.02;60.17
67980;BME280;54760;47.490;19.030;2022-09-16T08:03:27;99371.03;;;19.87;60.96
67980;BME280;54760;47.490;19.030;2022-09-16T08:05:58;99378.69;;;20.15;60.25
67980;BME280;54760;47.490;19.030;2022-09-16T08:08:24;99385.84;;;20.38;60.02
67980;BME280;54760;47.490;19.030;2022-09-16T08:10:54;99383.37;;;20.57;57.59
67980;BME280;54760;47.490;19.030;2022-09-16T08:13:19;99392.22;;;20.55;56.51
67980;BME280;54760;47.490;19.030;2022-09-16T08:15:45;99392.94;;;20.39;57.23
67980;BME280;54760;47.490;19.030;2022-09-16T08:18:10;99389.13;;;20.31;56.65
67980;BME280;54760;47.490;19.030;2022-09-16T08:20:36;99397.13;;;20.07;55.45
67980;BME280;54760;47.490;19.030;2022-09-16T08:23:01;99392.28;;;19.96;56.95
67980;BME280;54760;47.490;19.030;2022-09-16T08:25:27;99395.78;;;19.85;57.74
67980;BME280;54760;47.490;19.030;2022-09-16T08:27:52;99398.09;;;19.50;57.77
67980;BME280;54760;47.490;19.030;2022-09-16T08:30:17;99398.00;;;19.33;58.89
67980;BME280;54760;47.490;19.030;2022-09-16T08:32:43;99387.53;;;19.49;58.69
67980;BME280;54760;47.490;19.030;2022-09-16T08:35:08;99390.78;;;19.47;58.87
67980;BME280;54760;47.490;19.030;2022-09-16T08:37:34;99391.00;;;19.43;58.53
67980;BME280;54760;47.490;19.030;2022-09-16T08:40:00;99384.50;;;19.52;58.28
67980;BME280;54760;47.490;19.030;2022-09-16T08:50:47;99400.88;;;19.50;58.79
67980;BME280;54760;47.490;19.030;2022-09-16T08:53:31;99402.34;;;19.40;57.94
67980;BME280;54760;47.490;19.030;2022-09-16T08:56:02;99397.09;;;19.11;57.09
67980;BME280;54760;47.490;19.030;2022-09-16T08:58:49;99395.38;;;19.19;58.58
67980;BME280;54760;47.490;19.030;2022-09-16T09:03:45;99404.19;;;19.17;59.27
67980;BME280;54760;47.490;19.030;2022-09-16T09:11:46;99413.91;;;19.38;57.74
67980;BME280;54760;47.490;19.030;2022-09-16T09:16:55;99401.59;;;19.45;56.78
67980;BME280;54760;47.490;19.030;2022-09-16T09:22:12;99397.03;;;19.90;57.63
67980;BME280;54760;47.490;19.030;2022-09-16T09:27:44;99392.75;;;19.83;56.62
67980;BME280;54760;47.490;19.030;2022-09-16T09:30:23;99396.53;;;19.07;59.32
67980;BME280;54760;47.490;19.030;2022-09-16T09:41:14;99391.06;;;19.49;57.04
67980;BME280;54760;47.490;19.030;2022-09-16T09:43:51;99385.09;;;19.30;57.16
67980;BME280;54760;47.490;19.030;2022-09-16T09:48:54;99400.44;;;19.57;54.61
67980;BME280;54760;47.490;19.030;2022-09-16T09:51:32;99399.59;;;19.45;54.59
67980;BME280;54760;47.490;19.030;2022-09-16T09:54:02;99402.66;;;19.48;54.24
67980;BME280;54760;47.490;19.030;2022-09-16T10:01:55;99380.19;;;20.10;53.19
67980;BME280;54760;47.490;19.030;2022-09-16T10:04:22;99380.44;;;20.07;51.78
67980;BME280;54760;47.490;19.030;2022-09-16T10:06:48;99367.13;;;20.22;51.76
67980;BME280;54760;47.490;19.030;2022-09-16T10:09:15;99370.44;;;20.48;50.25
67980;BME280;54760;47.490;19.030;2022-09-16T10:11:47;99367.38;;;20.29;50.87
67980;BME280;54760;47.490;19.030;2022-09-16T10:14:25;99368.19;;;20.58;50.46
67980;BME280;54760;47.490;19.030;2022-09-16T10:16:52;99378.56;;;20.46;47.08
67980;BME280;54760;47.490;19.030;2022-09-16T10:19:25;99382.84;;;20.36;48.22
67980;BME280;54760;47.490;19.030;2022-09-16T10:21:54;99387.12;;;20.37;46.97
67980;BME280;54760;47.490;19.030;2022-09-16T10:24:33;99379.31;;;20.47;47.29
67980;BME280;54760;47.490;19.030;2022-09-16T10:27:00;99377.19;;;20.08;47.44
67980;BME280;54760;47.490;19.030;2022-09-16T10:29:26;99380.72;;;19.55;48.12
67980;BME280;54760;47.490;19.030;2022-09-16T10:31:52;99367.87;;;19.58;49.16
67980;BME280;54760;47.490;19.030;2022-09-16T10:36:59;99361.13;;;19.75;49.36
67980;BME280;54760;47.490;19.030;2022-09-16T10:39:26;99364.72;;;19.81;49.94
67980;BME280;54760;47.490;19.030;2022-09-16T10:41:52;99365.25;;;19.97;49.04
67980;BME280;54760;47.490;19.030;2022-09-16T10:46:52;99369.09;;;20.10;48.21
67980;BME280;54760;47.490;19.030;2022-09-16T10:49:23;99367.56;;;19.98;47.77
67980;BME280;54760;47.490;19.030;2022-09-16T10:51:49;99361.75;;;20.02;46.65
67980;BME280;54760;47.490;19.030;2022-09-16T10:54:27;99370.63;;;20.17;46.89
67980;BME280;54760;47.490;19.030;2022-09-16T10:56:53;99364.53;;;20.07;46.62
67980;BME280;54760;47.490;19.030;2022-09-16T10:59:19;99371.13;;;20.15;46.27
67980;BME280;54760;47.490;19.030;2022-09-16T11:09:48;99380.06;;;20.47;44.72
67980;BME280;54760;47.490;19.030;2022-09-16T11:18:24;99372.75;;;20.83;45.14
67980;BME280;54760;47.490;19.030;2022-09-16T11:29:48;99373.97;;;20.43;51.64
67980;BME280;54760;47.490;19.030;2022-09-16T11:37:37;99363.13;;;20.45;51.25
67980;BME280;54760;47.490;19.030;2022-09-16T11:40:46;99356.31;;;21.18;49.24
67980;BME280;54760;47.490;19.030;2022-09-16T11:46:09;99343.25;;;22.59;44.54
67980;BME280;54760;47.490;19.030;2022-09-16T11:48:57;99354.97;;;22.16;44.45
67980;BME280;54760;47.490;19.030;2022-09-16T11:57:11;99342.16;;;22.37;44.73
67980;BME280;54760;47.490;19.030;2022-09-16T11:59:53;99341.41;;;22.37;44.70
67980;BME280;54760;47.490;19.030;2022-09-16T12:02:26;99335.34;;;21.86;45.37
67980;BME280;54760;47.490;19.030;2022-09-16T12:05:06;99336.78;;;22.04;45.66
67980;BME280;54760;47.490;19.030;2022-09-16T12:07:41;99330.03;;;21.94;45.82
67980;BME280;54760;47.490;19.030;2022-09-16T12:10:24;99334.81;;;21.88;46.62
67980;BME280;54760;47.490;19.030;2022-09-16T12:12:59;99326.50;;;21.82;46.77
67980;BME280;54760;47.490;19.030;2022-09-16T12:15:41;99317.19;;;21.69;46.59
67980;BME280;54760;47.490;19.030;2022-09-16T12:18:17;99316.91;;;21.72;46.84
67980;BME280;54760;47.490;19.030;2022-09-16T12:20:53;99336.44;;;21.67;46.65
67980;BME280;54760;47.490;19.030;2022-09-16T12:23:30;99329.63;;;21.56;46.87
67980;BME280;54760;47.490;19.030;2022-09-16T12:26:16;99327.94;;;21.37;47.40
67980;BME280;54760;47.490;19.030;2022-09-16T12:28:47;99324.66;;;21.33;47.44
67980;BME280;54760;47.490;19.030;2022-09-16T12:31:24;99314.28;;;21.33;48.78
67980;BME280;54760;47.490;19.030;2022-09-16T12:34:01;99316.34;;;21.16;49.51
67980;BME280;54760;47.490;19.030;2022-09-16T12:36:30;99318.88;;;20.92;50.18
67980;BME280;54760;47.490;19.030;2022-09-16T12:38:57;99325.47;;;20.89;50.71
67980;BME280;54760;47.490;19.030;2022-09-16T13:03:47;99291.87;;;20.42;52.87
67980;BME280;54760;47.490;19.030;2022-09-16T13:06:32;99295.66;;;20.61;52.24
67980;BME280;54760;47.490;19.030;2022-09-16T13:11:51;99282.97;;;20.94;51.16
67980;BME280;54760;47.490;19.030;2022-09-16T13:14:23;99281.94;;;20.97;50.47
67980;BME280;54760;47.490;19.030;2022-09-16T13:16:53;99286.03;;;20.85;49.30
67980;BME280;54760;47.490;19.030;2022-09-16T13:21:47;99281.72;;;20.78;49.28
67980;BME280;54760;47.490;19.030;2022-09-16T13:24:28;99286.25;;;20.87;49.13
67980;BME280;54760;47.490;19.030;2022-09-16T13:26:55;99289.84;;;20.54;49.57
67980;BME280;54760;47.490;19.030;2022-09-16T13:32:01;99288.31;;;20.64;50.21
67980;BME280;54760;47.490;19.030;2022-09-16T13:34:27;99282.75;;;20.64;50.51
67980;BME280;54760;47.490;19.030;2022-09-16T13:36:52;99282.25;;;20.77;50.72
67980;BME280;54760;47.490;19.030;2022-09-16T13:39:28;99279.97;;;20.81;51.22
67980;BME280;54760;47.490;19.030;2022-09-16T13:41:53;99267.31;;;20.91;50.30
67980;BME280;54760;47.490;19.030;2022-09-16T13:49:31;99270.37;;;20.59;51.31
67980;BME280;54760;47.490;19.030;2022-09-16T13:51:58;99271.91;;;20.60;51.24
67980;BME280;54760;47.490;19.030;2022-09-16T13:54:40;99262.56;;;20.41;52.38
67980;BME280;54760;47.490;19.030;2022-09-16T14:12:26;99241.47;;;21.18;51.03
67980;BME280;54760;47.490;19.030;2022-09-16T14:14:56;99239.91;;;21.28;50.68
67980;BME280;54760;47.490;19.030;2022-09-16T14:17:23;99238.37;;;21.27;50.71
67980;BME280;54760;47.490;19.030;2022-09-16T14:19:54;99239.97;;;21.00;50.33
67980;BME280;54760;47.490;19.030;2022-09-16T14:22:21;99237.41;;;21.08;50.23
67980;BME280;54760;47.490;19.030;2022-09-16T14:24:49;99237.00;;;20.82;51.14
67980;BME280;54760;47.490;19.030;2022-09-16T14:27:29;99241.53;;;20.85;50.79
67980;BME280;54760;47.490;19.030;2022-09-16T14:32:20;99235.50;;;20.58;51.32
67980;BME280;54760;47.490;19.030;2022-09-16T14:34:47;99240.31;;;20.36;51.37
67980;BME280;54760;47.490;19.030;2022-09-16T14:37:16;99245.84;;;20.30;51.82
67980;BME280;54760;47.490;19.030;2022-09-16T14:39:42;99243.09;;;20.47;52.53
67980;BME280;54760;47.490;19.030;2022-09-16T14:42:07;99244.09;;;20.27;52.86
67980;BME280;54760;47.490;19.030;2022-09-16T14:44:40;99244.09;;;20.27;53.19
67980;BME280;54760;47.490;19.030;2022-09-16T14:47:13;99236.28;;;20.31;53.05
67980;BME280;54760;47.490;19.030;2022-09-16T14:49:41;99237.75;;;20.15;53.14
67980;BME280;54760;47.490;19.030;2022-09-16T14:52:14;99230.66;;;19.92;53.73
67980;BME280;54760;47.490;19.030;2022-09-16T14:54:44;99220.84;;;19.97;53.55
67980;BME280;54760;47.490;19.030;2022-09-16T14:57:13;99208.47;;;19.98;54.22
67980;BME280;54760;47.490;19.030;2022-09-16T14:59:40;99213.50;;;19.94;54.36
67980;BME280;54760;47.490;19.030;2022-09-16T15:02:17;99212.25;;;20.00;54.85
67980;BME280;54760;47.490;19.030;2022-09-16T15:04:44;99208.22;;;20.12;54.70
67980;BME280;54760;47.490;19.030;2022-09-16T15:07:15;99201.63;;;19.76;56.84
67980;BME280;54760;47.490;19.030;2022-09-16T15:09:44;99210.22;;;19.78;57.90
67980;BME280;54760;47.490;19.030;2022-09-16T15:12:22;99208.41;;;19.70;59.03
67980;BME280;54760;47.490;19.030;2022-09-16T15:14:48;99219.53;;;19.64;59.06
67980;BME280;54760;47.490;19.030;2022-09-16T15:17:15;99224.31;;;19.75;59.13
67980;BME280;54760;47.490;19.030;2022-09-16T15:19:42;99224.56;;;19.71;59.44
67980;BME280;54760;47.490;19.030;2022-09-16T15:22:12;99228.38;;;19.68;60.12
67980;BME280;54760;47.490;19.030;2022-09-16T15:24:39;99235.66;;;19.55;60.37
67980;BME280;54760;47.490;19.030;2022-09-16T15:27:05;99234.38;;;19.61;60.43
67980;BME280;54760;47.490;19.030;2022-09-16T15:29:31;99231.75;;;19.30;60.83
67980;BME280;54760;47.490;19.030;2022-09-16T15:34:38;99238.56;;;19.34;60.77
67980;BME280;54760;47.490;19.030;2022-09-16T15:37:04;99235.25;;;19.25;61.07
67980;BME280;54760;47.490;19.030;2022-09-16T15:42:15;99232.34;;;18.97;61.94
67980;BME280;54760;47.490;19.030;2022-09-16T15:44:42;99229.06;;;18.98;62.16
67980;BME280;54760;47.490;19.030;2022-09-16T15:47:14;99230.84;;;19.01;62.28
67980;BME280;54760;47.490;19.030;2022-09-16T15:49:41;99234.84;;;18.95;62.92
67980;BME280;54760;47.490;19.030;2022-09-16T15:52:12;99244.31;;;19.20;61.75
67980;BME280;54760;47.490;19.030;2022-09-16T15:54:44;99243.56;;;19.19;62.03
67980;BME280;54760;47.490;19.030;2022-09-16T16:00:06;99238.75;;;19.20;62.13
67980;BME280;54760;47.490;19.030;2022-09-16T16:02:38;99231.56;;;18.91;62.53
67980;BME280;54760;47.490;19.030;2022-09-16T16:05:05;99218.31;;;19.17;62.29
67980;BME280;54760;47.490;19.030;2022-09-16T16:07:40;99217.50;;;19.00;62.38
67980;BME280;54760;47.490;19.030;2022-09-16T16:10:10;99216.59;;;18.77;63.02
67980;BME280;54760;47.490;19.030;2022-09-16T16:12:36;99211.16;;;18.57;63.70
67980;BME280;54760;47.490;19.030;2022-09-16T16:15:01;99219.56;;;18.68;63.56
67980;BME280;54760;47.490;19.030;2022-09-16T16:17:27;99217.53;;;18.63;63.77
67980;BME280;54760;47.490;19.030;2022-09-16T16:19:52;99214.88;;;18.48;64.32
67980;BME280;54760;47.490;19.030;2022-09-16T16:22:20;99213.31;;;18.73;63.38
67980;BME280;54760;47.490;19.030;2022-09-16T16:24:45;99210.75;;;18.70;63.50
67980;BME280;54760;47.490;19.030;2022-09-16T16:27:10;99212.25;;;18.65;63.85
67980;BME280;54760;47.490;19.030;2022-09-16T16:29:35;99205.22;;;18.70;63.63